sensor_id;sensor_type;location;lat;lon;timestamp;temperature;humidity
37782;DHT22;23621;50.878;4.584;2023-12-29T00:00:39;16.90;69.20
37782;DHT22;23621;50.878;4.584;2023-12-29T00:02:40;16.80;69.10
37782;DHT22;23621;50.878;4.584;2023-12-29T00:04:40;16.80;69.20
37782;DHT22;23621;50.878;4.584;2023-12-29T00:06:42;16.70;69.30
37782;DHT22;23621;50.878;4.584;2023-12-29T00:08:43;16.70;69.20
37782;DHT22;23621;50.878;4.584;2023-12-29T00:10:44;16.70;69.30
37782;DHT22;23621;50.878;4.584;2023-12-29T00:12:45;16.60;69.10
37782;DHT22;23621;50.878;4.584;2023-12-29T00:14:46;16.70;69.30
37782;DHT22;23621;50.878;4.584;2023-12-29T00:16:47;16.80;69.20
37782;DHT22;23621;50.878;4.584;2023-12-29T00:18:47;16.70;69.20
37782;DHT22;23621;50.878;4.584;2023-12-29T00:20:49;16.70;68.90
37782;DHT22;23621;50.878;4.584;2023-12-29T00:22:49;17.00;69.00
37782;DHT22;23621;50.878;4.584;2023-12-29T00:24:50;17.00;68.80
37782;DHT22;23621;50.878;4.584;2023-12-29T00:26:51;17.00;69.50
37782;DHT22;23621;50.878;4.584;2023-12-29T00:28:52;17.00;68.70
37782;DHT22;23621;50.878;4.584;2023-12-29T00:30:52;16.90;68.90
37782;DHT22;23621;50.878;4.584;2023-12-29T00:32:53;17.00;68.70
37782;DHT22;23621;50.878;4.584;2023-12-29T00:34:53;17.00;68.70
37782;DHT22;23621;50.878;4.584;2023-12-29T00:36:54;17.10;68.60
37782;DHT22;23621;50.878;4.584;2023-12-29T00:38:55;17.00;68.60
37782;DHT22;23621;50.878;4.584;2023-12-29T00:40:56;17.10;68.50
37782;DHT22;23621;50.878;4.584;2023-12-29T00:42:56;17.10;68.50
37782;DHT22;23621;50.878;4.584;2023-12-29T00:44:57;17.00;68.40
37782;DHT22;23621;50.878;4.584;2023-12-29T00:46:58;16.90;68.70
37782;DHT22;23621;50.878;4.584;2023-12-29T00:48:59;16.90;68.90
37782;DHT22;23621;50.878;4.584;2023-12-29T00:51:03;16.90;68.80
37782;DHT22;23621;50.878;4.584;2023-12-29T00:53:04;16.90;69.00
37782;DHT22;23621;50.878;4.584;2023-12-29T00:55:05;17.00;68.90
37782;DHT22;23621;50.878;4.584;2023-12-29T00:57:06;17.00;68.80
37782;DHT22;23621;50.878;4.584;2023-12-29T00:59:06;17.00;68.70
37782;DHT22;23621;50.878;4.584;2023-12-29T01:01:08;16.70;69.10
37782;DHT22;23621;50.878;4.584;2023-12-29T01:03:09;17.00;69.10
37782;DHT22;23621;50.878;4.584;2023-12-29T01:05:10;16.80;69.40
37782;DHT22;23621;50.878;4.584;2023-12-29T01:07:10;16.70;69.50
37782;DHT22;23621;50.878;4.584;2023-12-29T01:09:11;16.80;69.40
37782;DHT22;23621;50.878;4.584;2023-12-29T01:11:12;16.60;69.80
37782;DHT22;23621;50.878;4.584;2023-12-29T01:13:13;16.70;69.60
37782;DHT22;23621;50.878;4.584;2023-12-29T01:15:13;16.80;69.40
37782;DHT22;23621;50.878;4.584;2023-12-29T01:17:14;16.90;69.30
37782;DHT22;23621;50.878;4.584;2023-12-29T01:19:15;16.80;69.60
37782;DHT22;23621;50.878;4.584;2023-12-29T01:21:16;16.80;69.40
37782;DHT22;23621;50.878;4.584;2023-12-29T01:23:16;16.90;69.30
37782;DHT22;23621;50.878;4.584;2023-12-29T01:25:18;16.90;69.20
37782;DHT22;23621;50.878;4.584;2023-12-29T01:27:19;16.90;69.20
37782;DHT22;23621;50.878;4.584;2023-12-29T01:29:19;16.90;69.20
37782;DHT22;23621;50.878;4.584;2023-12-29T01:31:20;16.90;69.20
37782;DHT22;23621;50.878;4.584;2023-12-29T01:33:21;16.90;69.30
37782;DHT22;23621;50.878;4.584;2023-12-29T01:35:22;17.00;69.30
37782;DHT22;23621;50.878;4.584;2023-12-29T01:37:22;16.90;69.30
37782;DHT22;23621;50.878;4.584;2023-12-29T01:39:23;17.00;69.40
37782;DHT22;23621;50.878;4.584;2023-12-29T01:41:24;16.80;69.40
37782;DHT22;23621;50.878;4.584;2023-12-29T01:43:25;17.00;69.50
37782;DHT22;23621;50.878;4.584;2023-12-29T01:45:25;16.80;69.50
37782;DHT22;23621;50.878;4.584;2023-12-29T01:47:27;17.10;69.20
37782;DHT22;23621;50.878;4.584;2023-12-29T01:49:29;16.80;69.60
37782;DHT22;23621;50.878;4.584;2023-12-29T01:51:30;17.00;69.30
37782;DHT22;23621;50.878;4.584;2023-12-29T01:53:32;17.10;69.70
37782;DHT22;23621;50.878;4.584;2023-12-29T01:55:33;17.10;68.80
37782;DHT22;23621;50.878;4.584;2023-12-29T01:57:34;16.90;69.10
37782;DHT22;23621;50.878;4.584;2023-12-29T01:59:36;17.10;68.90
37782;DHT22;23621;50.878;4.584;2023-12-29T02:01:38;16.90;69.00
37782;DHT22;23621;50.878;4.584;2023-12-29T02:03:40;16.90;69.20
37782;DHT22;23621;50.878;4.584;2023-12-29T02:05:41;16.90;69.20
37782;DHT22;23621;50.878;4.584;2023-12-29T02:07:43;16.80;69.20
37782;DHT22;23621;50.878;4.584;2023-12-29T02:09:44;16.70;69.30
37782;DHT22;23621;50.878;4.584;2023-12-29T02:11:46;16.70;69.50
37782;DHT22;23621;50.878;4.584;2023-12-29T02:13:47;16.90;69.30
37782;DHT22;23621;50.878;4.584;2023-12-29T02:15:51;16.80;69.20
37782;DHT22;23621;50.878;4.584;2023-12-29T02:18:02;17.10;69.30
37782;DHT22;23621;50.878;4.584;2023-12-29T02:20:08;16.80;69.30
37782;DHT22;23621;50.878;4.584;2023-12-29T02:22:10;16.60;69.50
37782;DHT22;23621;50.878;4.584;2023-12-29T02:24:11;16.80;69.60
37782;DHT22;23621;50.878;4.584;2023-12-29T02:26:15;17.00;69.20
37782;DHT22;23621;50.878;4.584;2023-12-29T02:28:23;16.90;69.30
37782;DHT22;23621;50.878;4.584;2023-12-29T02:30:49;16.80;69.40
37782;DHT22;23621;50.878;4.584;2023-12-29T02:32:55;17.00;69.00
37782;DHT22;23621;50.878;4.584;2023-12-29T02:34:56;17.00;69.10
37782;DHT22;23621;50.878;4.584;2023-12-29T02:36:58;16.80;70.10
37782;DHT22;23621;50.878;4.584;2023-12-29T02:39:00;16.80;69.40
37782;DHT22;23621;50.878;4.584;2023-12-29T02:41:00;17.20;69.20
37782;DHT22;23621;50.878;4.584;2023-12-29T02:43:01;17.00;69.30
37782;DHT22;23621;50.878;4.584;2023-12-29T02:45:03;17.10;69.70
37782;DHT22;23621;50.878;4.584;2023-12-29T02:47:04;17.10;69.70
37782;DHT22;23621;50.878;4.584;2023-12-29T02:49:04;17.20;69.40
37782;DHT22;23621;50.878;4.584;2023-12-29T02:51:05;17.10;69.20
37782;DHT22;23621;50.878;4.584;2023-12-29T02:53:08;17.10;69.10
37782;DHT22;23621;50.878;4.584;2023-12-29T02:55:09;16.90;69.20
37782;DHT22;23621;50.878;4.584;2023-12-29T02:57:10;17.20;69.40
37782;DHT22;23621;50.878;4.584;2023-12-29T02:59:10;16.90;69.10
37782;DHT22;23621;50.878;4.584;2023-12-29T03:01:11;17.10;69.20
37782;DHT22;23621;50.878;4.584;2023-12-29T03:03:12;17.10;69.10
37782;DHT22;23621;50.878;4.584;2023-12-29T03:05:13;17.00;69.20
37782;DHT22;23621;50.878;4.584;2023-12-29T03:07:14;16.90;69.40
37782;DHT22;23621;50.878;4.584;2023-12-29T03:09:14;16.90;69.30
37782;DHT22;23621;50.878;4.584;2023-12-29T03:11:15;17.00;69.00
37782;DHT22;23621;50.878;4.584;2023-12-29T03:13:16;17.10;69.10
37782;DHT22;23621;50.878;4.584;2023-12-29T03:15:16;17.10;69.00
37782;DHT22;23621;50.878;4.584;2023-12-29T03:17:17;17.20;69.60
37782;DHT22;23621;50.878;4.584;2023-12-29T03:19:18;17.20;68.80
37782;DHT22;23621;50.878;4.584;2023-12-29T03:21:18;17.30;68.80
37782;DHT22;23621;50.878;4.584;2023-12-29T03:23:19;17.20;68.80
37782;DHT22;23621;50.878;4.584;2023-12-29T03:25:20;17.10;69.30
37782;DHT22;23621;50.878;4.584;2023-12-29T03:27:20;17.20;69.20
37782;DHT22;23621;50.878;4.584;2023-12-29T03:29:21;17.10;69.20
37782;DHT22;23621;50.878;4.584;2023-12-29T03:31:22;16.90;69.60
37782;DHT22;23621;50.878;4.584;2023-12-29T03:33:22;16.70;69.80
37782;DHT22;23621;50.878;4.584;2023-12-29T03:35:23;17.00;69.50
37782;DHT22;23621;50.878;4.584;2023-12-29T03:37:24;16.80;69.70
37782;DHT22;23621;50.878;4.584;2023-12-29T03:39:24;16.80;69.60
37782;DHT22;23621;50.878;4.584;2023-12-29T03:41:25;17.00;69.50
37782;DHT22;23621;50.878;4.584;2023-12-29T03:43:26;16.80;69.60
37782;DHT22;23621;50.878;4.584;2023-12-29T03:45:26;16.80;69.60
37782;DHT22;23621;50.878;4.584;2023-12-29T03:47:27;16.70;69.60
37782;DHT22;23621;50.878;4.584;2023-12-29T03:49:28;16.80;69.60
37782;DHT22;23621;50.878;4.584;2023-12-29T03:51:29;16.70;69.80
37782;DHT22;23621;50.878;4.584;2023-12-29T03:53:30;16.70;69.80
37782;DHT22;23621;50.878;4.584;2023-12-29T03:55:30;16.60;70.00
37782;DHT22;23621;50.878;4.584;2023-12-29T03:57:31;16.60;70.00
37782;DHT22;23621;50.878;4.584;2023-12-29T03:59:32;16.70;69.80
37782;DHT22;23621;50.878;4.584;2023-12-29T04:01:33;16.70;69.80
37782;DHT22;23621;50.878;4.584;2023-12-29T04:03:34;16.60;70.00
37782;DHT22;23621;50.878;4.584;2023-12-29T04:05:35;16.70;69.80
37782;DHT22;23621;50.878;4.584;2023-12-29T04:07:36;16.60;70.00
37782;DHT22;23621;50.878;4.584;2023-12-29T04:09:37;16.50;70.30
37782;DHT22;23621;50.878;4.584;2023-12-29T04:11:37;16.60;70.20
37782;DHT22;23621;50.878;4.584;2023-12-29T04:13:38;16.60;70.30
37782;DHT22;23621;50.878;4.584;2023-12-29T04:15:39;16.70;70.00
37782;DHT22;23621;50.878;4.584;2023-12-29T04:17:39;16.60;70.30
37782;DHT22;23621;50.878;4.584;2023-12-29T04:19:41;16.60;70.20
37782;DHT22;23621;50.878;4.584;2023-12-29T04:21:41;16.60;70.20
37782;DHT22;23621;50.878;4.584;2023-12-29T04:23:42;16.60;70.20
37782;DHT22;23621;50.878;4.584;2023-12-29T04:25:43;16.60;70.30
37782;DHT22;23621;50.878;4.584;2023-12-29T04:27:44;16.60;70.30
37782;DHT22;23621;50.878;4.584;2023-12-29T04:29:44;16.60;70.10
37782;DHT22;23621;50.878;4.584;2023-12-29T04:31:45;16.60;70.10
37782;DHT22;23621;50.878;4.584;2023-12-29T04:33:46;16.60;70.20
37782;DHT22;23621;50.878;4.584;2023-12-29T04:35:47;16.60;70.30
37782;DHT22;23621;50.878;4.584;2023-12-29T04:37:47;16.50;70.30
37782;DHT22;23621;50.878;4.584;2023-12-29T04:39:49;16.50;70.70
37782;DHT22;23621;50.878;4.584;2023-12-29T04:41:50;16.50;70.50
37782;DHT22;23621;50.878;4.584;2023-12-29T04:43:51;16.60;70.30
37782;DHT22;23621;50.878;4.584;2023-12-29T04:45:52;16.40;70.40
37782;DHT22;23621;50.878;4.584;2023-12-29T04:47:52;16.50;70.40
37782;DHT22;23621;50.878;4.584;2023-12-29T04:49:53;16.50;70.60
37782;DHT22;23621;50.878;4.584;2023-12-29T04:51:54;16.70;71.40
37782;DHT22;23621;50.878;4.584;2023-12-29T04:53:54;16.60;70.80
37782;DHT22;23621;50.878;4.584;2023-12-29T04:55:55;16.60;70.80
37782;DHT22;23621;50.878;4.584;2023-12-29T04:57:56;16.60;70.70
37782;DHT22;23621;50.878;4.584;2023-12-29T04:59:57;16.80;70.50
37782;DHT22;23621;50.878;4.584;2023-12-29T05:01:57;16.60;70.60
37782;DHT22;23621;50.878;4.584;2023-12-29T05:03:58;16.70;70.50
37782;DHT22;23621;50.878;4.584;2023-12-29T05:05:59;16.60;70.60
37782;DHT22;23621;50.878;4.584;2023-12-29T05:07:59;16.60;70.60
37782;DHT22;23621;50.878;4.584;2023-12-29T05:10:00;16.70;70.60
37782;DHT22;23621;50.878;4.584;2023-12-29T05:12:01;16.60;70.80
37782;DHT22;23621;50.878;4.584;2023-12-29T05:14:01;16.60;70.80
37782;DHT22;23621;50.878;4.584;2023-12-29T05:16:02;16.70;70.70
37782;DHT22;23621;50.878;4.584;2023-12-29T05:18:04;16.70;70.50
37782;DHT22;23621;50.878;4.584;2023-12-29T05:20:06;16.70;70.70
37782;DHT22;23621;50.878;4.584;2023-12-29T05:22:07;16.60;71.00
37782;DHT22;23621;50.878;4.584;2023-12-29T05:24:08;16.50;71.20
37782;DHT22;23621;50.878;4.584;2023-12-29T05:26:09;16.50;71.30
37782;DHT22;23621;50.878;4.584;2023-12-29T05:28:09;16.50;71.10
37782;DHT22;23621;50.878;4.584;2023-12-29T05:30:11;16.60;71.00
37782;DHT22;23621;50.878;4.584;2023-12-29T05:32:11;16.50;71.40
37782;DHT22;23621;50.878;4.584;2023-12-29T05:34:12;16.60;71.30
37782;DHT22;23621;50.878;4.584;2023-12-29T05:36:13;16.50;71.30
37782;DHT22;23621;50.878;4.584;2023-12-29T05:38:14;16.50;71.40
37782;DHT22;23621;50.878;4.584;2023-12-29T05:40:15;16.60;71.40
37782;DHT22;23621;50.878;4.584;2023-12-29T05:42:15;16.40;71.70
37782;DHT22;23621;50.878;4.584;2023-12-29T05:44:16;16.30;72.00
37782;DHT22;23621;50.878;4.584;2023-12-29T05:46:17;16.40;71.80
37782;DHT22;23621;50.878;4.584;2023-12-29T05:48:18;16.60;71.70
37782;DHT22;23621;50.878;4.584;2023-12-29T05:50:18;16.60;71.60
37782;DHT22;23621;50.878;4.584;2023-12-29T05:52:19;16.60;71.60
37782;DHT22;23621;50.878;4.584;2023-12-29T05:54:20;16.70;71.60
37782;DHT22;23621;50.878;4.584;2023-12-29T05:56:20;16.70;71.40
37782;DHT22;23621;50.878;4.584;2023-12-29T05:58:21;16.60;71.40
37782;DHT22;23621;50.878;4.584;2023-12-29T06:00:22;16.50;71.70
37782;DHT22;23621;50.878;4.584;2023-12-29T06:02:22;16.60;71.50
37782;DHT22;23621;50.878;4.584;2023-12-29T06:04:23;16.70;71.40
37782;DHT22;23621;50.878;4.584;2023-12-29T06:06:24;16.60;71.80
37782;DHT22;23621;50.878;4.584;2023-12-29T06:08:24;16.60;72.30
37782;DHT22;23621;50.878;4.584;2023-12-29T06:10:25;16.80;72.50
37782;DHT22;23621;50.878;4.584;2023-12-29T06:12:26;16.50;72.90
37782;DHT22;23621;50.878;4.584;2023-12-29T06:14:26;16.40;73.80
37782;DHT22;23621;50.878;4.584;2023-12-29T06:16:27;16.50;74.10
37782;DHT22;23621;50.878;4.584;2023-12-29T06:18:30;16.60;74.00
37782;DHT22;23621;50.878;4.584;2023-12-29T06:20:30;16.60;74.60
37782;DHT22;23621;50.878;4.584;2023-12-29T06:22:31;16.60;74.60
37782;DHT22;23621;50.878;4.584;2023-12-29T06:24:33;16.60;74.30
37782;DHT22;23621;50.878;4.584;2023-12-29T06:26:34;16.50;75.00
37782;DHT22;23621;50.878;4.584;2023-12-29T06:28:34;16.50;75.10
37782;DHT22;23621;50.878;4.584;2023-12-29T06:30:35;16.60;75.10
37782;DHT22;23621;50.878;4.584;2023-12-29T06:32:36;16.40;76.50
37782;DHT22;23621;50.878;4.584;2023-12-29T06:34:37;16.40;75.60
37782;DHT22;23621;50.878;4.584;2023-12-29T06:36:38;16.30;75.90
37782;DHT22;23621;50.878;4.584;2023-12-29T06:38:38;16.50;75.70
37782;DHT22;23621;50.878;4.584;2023-12-29T06:40:39;16.40;76.20
37782;DHT22;23621;50.878;4.584;2023-12-29T06:42:40;16.50;76.10
37782;DHT22;23621;50.878;4.584;2023-12-29T06:44:41;16.50;76.00
37782;DHT22;23621;50.878;4.584;2023-12-29T06:46:41;16.50;76.20
37782;DHT22;23621;50.878;4.584;2023-12-29T06:48:42;16.40;76.30
37782;DHT22;23621;50.878;4.584;2023-12-29T06:50:43;16.40;76.70
37782;DHT22;23621;50.878;4.584;2023-12-29T06:52:44;16.30;76.70
37782;DHT22;23621;50.878;4.584;2023-12-29T06:54:44;16.30;77.10
37782;DHT22;23621;50.878;4.584;2023-12-29T06:56:45;16.40;76.90
37782;DHT22;23621;50.878;4.584;2023-12-29T06:58:46;16.50;76.90
37782;DHT22;23621;50.878;4.584;2023-12-29T07:00:47;16.50;76.80
37782;DHT22;23621;50.878;4.584;2023-12-29T07:02:47;16.40;76.70
37782;DHT22;23621;50.878;4.584;2023-12-29T07:04:48;16.50;76.80
37782;DHT22;23621;50.878;4.584;2023-12-29T07:06:49;16.50;76.80
37782;DHT22;23621;50.878;4.584;2023-12-29T07:08:49;16.50;76.70
37782;DHT22;23621;50.878;4.584;2023-12-29T07:10:50;16.40;77.30
37782;DHT22;23621;50.878;4.584;2023-12-29T07:12:51;16.40;77.30
37782;DHT22;23621;50.878;4.584;2023-12-29T07:14:52;16.40;77.30
37782;DHT22;23621;50.878;4.584;2023-12-29T07:16:52;16.50;77.10
37782;DHT22;23621;50.878;4.584;2023-12-29T07:18:53;16.50;77.20
37782;DHT22;23621;50.878;4.584;2023-12-29T07:20:54;16.50;77.70
37782;DHT22;23621;50.878;4.584;2023-12-29T07:22:55;16.50;77.70
37782;DHT22;23621;50.878;4.584;2023-12-29T07:24:55;16.30;78.40
37782;DHT22;23621;50.878;4.584;2023-12-29T07:26:56;16.30;78.80
37782;DHT22;23621;50.878;4.584;2023-12-29T07:28:57;16.30;78.70
37782;DHT22;23621;50.878;4.584;2023-12-29T07:30:58;16.30;79.40
37782;DHT22;23621;50.878;4.584;2023-12-29T07:32:58;16.40;78.70
37782;DHT22;23621;50.878;4.584;2023-12-29T07:34:59;16.40;78.60
37782;DHT22;23621;50.878;4.584;2023-12-29T07:37:00;16.40;78.60
37782;DHT22;23621;50.878;4.584;2023-12-29T07:39:00;16.30;79.40
37782;DHT22;23621;50.878;4.584;2023-12-29T07:41:01;16.40;79.10
37782;DHT22;23621;50.878;4.584;2023-12-29T07:43:02;16.40;78.90
37782;DHT22;23621;50.878;4.584;2023-12-29T07:45:03;16.40;79.20
37782;DHT22;23621;50.878;4.584;2023-12-29T07:47:04;16.40;79.10
37782;DHT22;23621;50.878;4.584;2023-12-29T07:49:05;16.50;79.00
37782;DHT22;23621;50.878;4.584;2023-12-29T07:51:06;16.50;78.70
37782;DHT22;23621;50.878;4.584;2023-12-29T07:53:07;16.60;78.60
37782;DHT22;23621;50.878;4.584;2023-12-29T07:55:07;16.60;78.60
37782;DHT22;23621;50.878;4.584;2023-12-29T07:57:08;16.60;78.80
37782;DHT22;23621;50.878;4.584;2023-12-29T07:59:09;16.60;78.70
37782;DHT22;23621;50.878;4.584;2023-12-29T08:01:10;16.70;78.80
37782;DHT22;23621;50.878;4.584;2023-12-29T08:03:10;16.70;78.70
37782;DHT22;23621;50.878;4.584;2023-12-29T08:05:11;16.70;78.50
37782;DHT22;23621;50.878;4.584;2023-12-29T08:07:12;16.70;78.50
37782;DHT22;23621;50.878;4.584;2023-12-29T08:09:12;16.80;78.30
37782;DHT22;23621;50.878;4.584;2023-12-29T08:11:16;16.80;78.20
37782;DHT22;23621;50.878;4.584;2023-12-29T08:13:17;16.80;78.50
37782;DHT22;23621;50.878;4.584;2023-12-29T08:15:18;16.70;78.70
37782;DHT22;23621;50.878;4.584;2023-12-29T08:17:19;16.70;78.80
37782;DHT22;23621;50.878;4.584;2023-12-29T08:19:19;16.70;78.60
37782;DHT22;23621;50.878;4.584;2023-12-29T08:21:20;16.70;78.70
37782;DHT22;23621;50.878;4.584;2023-12-29T08:23:21;16.50;78.90
37782;DHT22;23621;50.878;4.584;2023-12-29T08:25:21;16.60;78.90
37782;DHT22;23621;50.878;4.584;2023-12-29T08:27:23;16.50;78.80
37782;DHT22;23621;50.878;4.584;2023-12-29T08:29:24;16.50;79.10
37782;DHT22;23621;50.878;4.584;2023-12-29T08:31:26;16.60;79.10
37782;DHT22;23621;50.878;4.584;2023-12-29T08:33:29;16.50;79.20
37782;DHT22;23621;50.878;4.584;2023-12-29T08:35:29;16.40;79.40
37782;DHT22;23621;50.878;4.584;2023-12-29T08:37:30;16.60;79.10
37782;DHT22;23621;50.878;4.584;2023-12-29T08:39:32;16.50;78.90
37782;DHT22;23621;50.878;4.584;2023-12-29T08:41:33;16.60;79.00
37782;DHT22;23621;50.878;4.584;2023-12-29T08:43:33;16.60;78.70
37782;DHT22;23621;50.878;4.584;2023-12-29T08:45:36;16.60;78.60
37782;DHT22;23621;50.878;4.584;2023-12-29T08:47:38;16.50;79.10
37782;DHT22;23621;50.878;4.584;2023-12-29T08:49:39;16.50;79.10
37782;DHT22;23621;50.878;4.584;2023-12-29T08:51:41;16.60;78.90
37782;DHT22;23621;50.878;4.584;2023-12-29T08:53:42;16.60;79.00
37782;DHT22;23621;50.878;4.584;2023-12-29T08:55:42;16.50;79.00
37782;DHT22;23621;50.878;4.584;2023-12-29T08:57:43;16.60;79.00
37782;DHT22;23621;50.878;4.584;2023-12-29T08:59:43;16.70;78.90
37782;DHT22;23621;50.878;4.584;2023-12-29T09:01:44;16.70;78.50
37782;DHT22;23621;50.878;4.584;2023-12-29T09:03:45;16.80;78.50
37782;DHT22;23621;50.878;4.584;2023-12-29T09:05:46;16.70;78.80
37782;DHT22;23621;50.878;4.584;2023-12-29T09:07:48;16.60;79.10
37782;DHT22;23621;50.878;4.584;2023-12-29T09:09:48;16.50;79.50
37782;DHT22;23621;50.878;4.584;2023-12-29T09:11:49;16.60;79.60
37782;DHT22;23621;50.878;4.584;2023-12-29T09:13:50;16.70;79.40
37782;DHT22;23621;50.878;4.584;2023-12-29T09:15:50;16.70;79.40
37782;DHT22;23621;50.878;4.584;2023-12-29T09:17:51;16.60;79.60
37782;DHT22;23621;50.878;4.584;2023-12-29T09:19:52;16.50;79.80
37782;DHT22;23621;50.878;4.584;2023-12-29T09:21:52;16.60;80.00
37782;DHT22;23621;50.878;4.584;2023-12-29T09:23:53;16.70;79.70
37782;DHT22;23621;50.878;4.584;2023-12-29T09:25:54;16.80;79.60
37782;DHT22;23621;50.878;4.584;2023-12-29T09:27:54;16.80;79.50
37782;DHT22;23621;50.878;4.584;2023-12-29T09:29:55;16.60;80.20
37782;DHT22;23621;50.878;4.584;2023-12-29T09:31:56;16.80;79.90
37782;DHT22;23621;50.878;4.584;2023-12-29T09:33:57;16.70;80.20
37782;DHT22;23621;50.878;4.584;2023-12-29T09:35:57;16.70;80.00
37782;DHT22;23621;50.878;4.584;2023-12-29T09:37:58;16.70;80.30
37782;DHT22;23621;50.878;4.584;2023-12-29T09:40:00;16.80;79.90
37782;DHT22;23621;50.878;4.584;2023-12-29T09:42:01;16.80;79.80
37782;DHT22;23621;50.878;4.584;2023-12-29T09:44:04;16.90;80.00
37782;DHT22;23621;50.878;4.584;2023-12-29T09:46:08;16.80;80.40
37782;DHT22;23621;50.878;4.584;2023-12-29T09:48:11;16.90;80.10
37782;DHT22;23621;50.878;4.584;2023-12-29T09:50:13;16.70;80.50
37782;DHT22;23621;50.878;4.584;2023-12-29T09:52:16;16.80;80.50
37782;DHT22;23621;50.878;4.584;2023-12-29T09:54:17;16.90;80.30
37782;DHT22;23621;50.878;4.584;2023-12-29T09:56:19;16.90;80.40
37782;DHT22;23621;50.878;4.584;2023-12-29T09:58:21;16.90;80.30
37782;DHT22;23621;50.878;4.584;2023-12-29T10:00:22;16.90;80.30
37782;DHT22;23621;50.878;4.584;2023-12-29T10:02:23;16.90;80.20
37782;DHT22;23621;50.878;4.584;2023-12-29T10:04:24;17.00;80.00
37782;DHT22;23621;50.878;4.584;2023-12-29T10:06:25;16.90;80.20
37782;DHT22;23621;50.878;4.584;2023-12-29T10:08:27;16.70;80.60
37782;DHT22;23621;50.878;4.584;2023-12-29T10:10:30;16.80;80.70
37782;DHT22;23621;50.878;4.584;2023-12-29T10:12:32;16.90;80.60
37782;DHT22;23621;50.878;4.584;2023-12-29T10:14:37;16.90;80.30
37782;DHT22;23621;50.878;4.584;2023-12-29T10:17:06;16.90;80.20
37782;DHT22;23621;50.878;4.584;2023-12-29T10:19:16;17.00;80.00
37782;DHT22;23621;50.878;4.584;2023-12-29T10:21:23;17.00;80.00
37782;DHT22;23621;50.878;4.584;2023-12-29T10:23:50;16.80;80.50
37782;DHT22;23621;50.878;4.584;2023-12-29T10:25:53;16.90;80.20
37782;DHT22;23621;50.878;4.584;2023-12-29T10:27:54;16.90;80.60
37782;DHT22;23621;50.878;4.584;2023-12-29T10:29:55;17.00;80.20
37782;DHT22;23621;50.878;4.584;2023-12-29T10:31:56;16.80;80.60
37782;DHT22;23621;50.878;4.584;2023-12-29T10:34:22;16.90;80.50
37782;DHT22;23621;50.878;4.584;2023-12-29T10:36:46;17.00;80.20
37782;DHT22;23621;50.878;4.584;2023-12-29T10:38:47;17.10;79.80
37782;DHT22;23621;50.878;4.584;2023-12-29T10:40:49;17.10;79.60
37782;DHT22;23621;50.878;4.584;2023-12-29T10:42:54;17.20;79.30
37782;DHT22;23621;50.878;4.584;2023-12-29T10:45:09;17.10;79.30
37782;DHT22;23621;50.878;4.584;2023-12-29T10:47:11;17.10;79.20
37782;DHT22;23621;50.878;4.584;2023-12-29T10:49:13;17.10;79.00
37782;DHT22;23621;50.878;4.584;2023-12-29T10:51:14;17.10;79.10
37782;DHT22;23621;50.878;4.584;2023-12-29T10:53:15;17.20;78.80
37782;DHT22;23621;50.878;4.584;2023-12-29T10:55:18;17.10;78.90
37782;DHT22;23621;50.878;4.584;2023-12-29T10:57:19;17.30;78.60
37782;DHT22;23621;50.878;4.584;2023-12-29T10:59:19;17.30;78.90
37782;DHT22;23621;50.878;4.584;2023-12-29T11:01:20;17.20;79.00
37782;DHT22;23621;50.878;4.584;2023-12-29T11:03:23;17.20;78.90
37782;DHT22;23621;50.878;4.584;2023-12-29T11:05:27;17.30;78.70
37782;DHT22;23621;50.878;4.584;2023-12-29T11:09:33;17.40;78.50
37782;DHT22;23621;50.878;4.584;2023-12-29T11:11:34;17.50;78.30
37782;DHT22;23621;50.878;4.584;2023-12-29T11:13:36;17.40;78.10
37782;DHT22;23621;50.878;4.584;2023-12-29T11:15:41;17.40;77.90
37782;DHT22;23621;50.878;4.584;2023-12-29T11:17:43;17.30;78.10
37782;DHT22;23621;50.878;4.584;2023-12-29T11:19:50;17.30;78.10
37782;DHT22;23621;50.878;4.584;2023-12-29T11:21:56;17.40;77.90
37782;DHT22;23621;50.878;4.584;2023-12-29T11:23:56;17.50;77.90
37782;DHT22;23621;50.878;4.584;2023-12-29T11:25:59;17.40;78.00
37782;DHT22;23621;50.878;4.584;2023-12-29T11:28:00;17.20;78.10
37782;DHT22;23621;50.878;4.584;2023-12-29T11:30:03;17.30;77.80
37782;DHT22;23621;50.878;4.584;2023-12-29T11:32:07;17.40;77.30
37782;DHT22;23621;50.878;4.584;2023-12-29T11:34:28;17.30;77.50
37782;DHT22;23621;50.878;4.584;2023-12-29T11:36:36;17.30;77.20
37782;DHT22;23621;50.878;4.584;2023-12-29T11:38:56;17.40;77.30
37782;DHT22;23621;50.878;4.584;2023-12-29T11:43:02;17.30;77.30
37782;DHT22;23621;50.878;4.584;2023-12-29T11:45:33;17.40;77.00
37782;DHT22;23621;50.878;4.584;2023-12-29T11:47:38;17.50;76.80
37782;DHT22;23621;50.878;4.584;2023-12-29T11:49:58;17.50;76.90
37782;DHT22;23621;50.878;4.584;2023-12-29T11:52:02;17.40;76.50
37782;DHT22;23621;50.878;4.584;2023-12-29T11:54:03;17.40;77.00
37782;DHT22;23621;50.878;4.584;2023-12-29T11:56:16;17.50;76.70
37782;DHT22;23621;50.878;4.584;2023-12-29T11:58:25;17.50;76.40
37782;DHT22;23621;50.878;4.584;2023-12-29T12:00:46;17.50;76.80
37782;DHT22;23621;50.878;4.584;2023-12-29T12:02:47;17.50;76.40
37782;DHT22;23621;50.878;4.584;2023-12-29T12:04:49;17.50;76.70
37782;DHT22;23621;50.878;4.584;2023-12-29T12:06:51;17.30;76.80
37782;DHT22;23621;50.878;4.584;2023-12-29T12:09:24;17.40;77.10
37782;DHT22;23621;50.878;4.584;2023-12-29T12:13:45;17.30;77.40
37782;DHT22;23621;50.878;4.584;2023-12-29T12:15:46;17.20;77.70
37782;DHT22;23621;50.878;4.584;2023-12-29T12:17:50;17.20;77.90
37782;DHT22;23621;50.878;4.584;2023-12-29T12:19:51;17.30;77.70
37782;DHT22;23621;50.878;4.584;2023-12-29T12:21:54;17.40;77.60
37782;DHT22;23621;50.878;4.584;2023-12-29T12:23:56;17.30;78.10
37782;DHT22;23621;50.878;4.584;2023-12-29T12:25:58;17.30;78.90
37782;DHT22;23621;50.878;4.584;2023-12-29T12:28:04;17.30;78.80
37782;DHT22;23621;50.878;4.584;2023-12-29T12:30:05;17.20;78.90
37782;DHT22;23621;50.878;4.584;2023-12-29T12:32:06;17.30;78.90
37782;DHT22;23621;50.878;4.584;2023-12-29T12:34:08;17.40;78.90
37782;DHT22;23621;50.878;4.584;2023-12-29T12:36:08;17.50;78.70
37782;DHT22;23621;50.878;4.584;2023-12-29T12:38:16;17.60;79.30
37782;DHT22;23621;50.878;4.584;2023-12-29T12:40:28;17.70;78.50
37782;DHT22;23621;50.878;4.584;2023-12-29T12:42:29;17.60;78.60
37782;DHT22;23621;50.878;4.584;2023-12-29T12:44:30;17.60;78.50
37782;DHT22;23621;50.878;4.584;2023-12-29T12:46:34;17.60;78.50
37782;DHT22;23621;50.878;4.584;2023-12-29T12:48:43;17.60;78.50
37782;DHT22;23621;50.878;4.584;2023-12-29T12:50:45;17.60;78.50
37782;DHT22;23621;50.878;4.584;2023-12-29T12:52:46;17.60;78.50
37782;DHT22;23621;50.878;4.584;2023-12-29T12:54:47;17.50;78.50
37782;DHT22;23621;50.878;4.584;2023-12-29T12:56:49;17.50;78.60